Edgar B Speer — WQZ9670 — position and weather

sailwx.info

Track history (hours):
 
Tides and Currents Weather Stations Pressure Air Temp Water Temp Dewpoint Dewpoint Depression Visibility Wind Speed Wind Dir Waves Ship Positions

Edgar B Speer

Owner: Great Lakes Fleet, Inc, DULUTH, MN. More information available from US FCC via Universal Licensing System and Coast Guard Vessel Documentation Center.

Last reported at 2018-Jul-21 03:48 UTC. Time now 2018-Jul-21 22:48 UTC.
Position N 46°15' W 084°06'.

Length 306 m; draft 7.5 m.

Type: Cargo ship. MMSI: 366971330.

Date/timePositionNaut miles runAvg speedWind from/ knotsBaromVisibWave heightAir tempDewpointWater temp
2018-Jul-21 03:48N 46°15' W 084°06'2 8.0
2018-Jul-21 03:30N 46°13' W 084°07'7 9.2
2018-Jul-21 02:47N 46°08' W 084°01'3 9.6
2018-Jul-21 02:28N 46°05' W 084°01'612.1
2018-Jul-21 02:00N 46°02' W 083°54'611.5
2018-Jul-21 01:28N 45°56' W 083°54'612.9
2018-Jul-21 00:59N 45°53' W 084°02'613.1
2018-Jul-21 00:30N 45°51' W 084°11'613.0
2018-Jul-21 00:00N 45°51' W 084°20'612.6
2018-Jul-20 23:31N 45°51' W 084°29'611.9
2018-Jul-20 23:01N 45°50' W 084°38'611.8
2018-Jul-20 22:30N 45°49' W 084°46'611.7
2018-Jul-20 21:59N 45°49' W 084°55'612.1
2018-Jul-20 21:31N 45°50' W 085°03'5 9.4
2018-Jul-20 21:01N 45°47' W 085°09'510.7
2018-Jul-20 20:31N 45°43' W 085°12'612.8
2018-Jul-20 20:01N 45°38' W 085°18'713.1
2018-Jul-20 19:31N 45°32' W 085°23'713.1
2018-Jul-20 19:00N 45°27' W 085°29'613.0
2018-Jul-20 18:31N 45°22' W 085°34'612.9
2018-Jul-20 18:01N 45°17' W 085°40'613.0
2018-Jul-20 17:31N 45°11' W 085°45'  
2018-Jul-18 12:16N 45°47' W 085°53'1412.1
2018-Jul-18 11:05N 45°53' W 085°34'1111.9
2018-Jul-18 10:12N 45°53' W 085°19'212.2
2018-Jul-18 10:00N 45°53' W 085°16'612.2
2018-Jul-18 09:30N 45°52' W 085°07'712.4
2018-Jul-18 08:59N 45°51' W 084°58'612.3
2018-Jul-18 08:31N 45°50' W 084°50'611.8
2018-Jul-18 08:00N 45°49' W 084°41'1811.8
2018-Jul-18 06:27N 45°53' W 084°15'309 8.8
2018-Jul-16 19:23N 46°54' W 091°35'512.0
2018-Jul-16 19:00N 46°51' W 091°40'612.0
2018-Jul-16 18:30N 46°48' W 091°48'611.8
2018-Jul-16 18:00N 46°45' W 091°55'5 9.7
2018-Jul-16 17:30N 46°42' W 092°01'0 0.7
2018-Jul-16 17:01N 46°42' W 092°01'0 0.0
2018-Jul-16 16:31N 46°42' W 092°01'0 0.0
2018-Jul-16 16:01N 46°42' W 092°01'0 0.0
2018-Jul-16 15:30N 46°42' W 092°01'0 0.0
2018-Jul-16 15:00N 46°42' W 092°01'0 0.0
2018-Jul-16 14:31N 46°42' W 092°01'0 0.0
2018-Jul-16 14:00N 46°42' W 092°01'0 0.0
2018-Jul-16 13:30N 46°42' W 092°01'0 0.0
2018-Jul-16 13:00N 46°42' W 092°01'0 0.0
2018-Jul-16 12:30N 46°42' W 092°01'0 0.0
2018-Jul-16 11:59N 46°42' W 092°01'0 0.0
2018-Jul-16 11:30N 46°42' W 092°01'0 0.0
2018-Jul-16 10:59N 46°42' W 092°01'0 0.0
2018-Jul-16 10:30N 46°42' W 092°01'0 0.0
2018-Jul-16 10:01N 46°42' W 092°01'0 0.0
2018-Jul-16 09:31N 46°42' W 092°01'0 0.0
2018-Jul-16 08:59N 46°42' W 092°01'0 0.0
2018-Jul-16 08:30N 46°42' W 092°01'0 0.0
2018-Jul-16 07:59N 46°42' W 092°01'0 0.0
2018-Jul-16 07:30N 46°42' W 092°01'0 0.0
2018-Jul-16 07:00N 46°42' W 092°01'0 0.0
2018-Jul-16 06:30N 46°42' W 092°01'0 0.5
2018-Jul-16 06:01N 46°42' W 092°01'1 2.1
2018-Jul-16 05:31N 46°43' W 092°02'3 6.5
2018-Jul-16 05:00N 46°45' W 092°06'0 0.8
2018-Jul-16 04:30N 46°46' W 092°06'0 0.0
2018-Jul-16 04:01N 46°46' W 092°06'0 0.0
2018-Jul-16 03:31N 46°46' W 092°06'0 0.0
2018-Jul-16 03:01N 46°46' W 092°06'0 0.0
2018-Jul-16 02:31N 46°46' W 092°06'0 0.0
2018-Jul-16 02:01N 46°46' W 092°06'0 0.0
2018-Jul-16 01:31N 46°46' W 092°06'0 0.0
2018-Jul-16 01:01N 46°46' W 092°06'0 0.1
2018-Jul-16 00:30N 46°46' W 092°06'1 1.8
2018-Jul-16 00:00N 46°46' W 092°06'3 7.0
2018-Jul-15 23:30N 46°48' W 092°01'611.9
2018-Jul-15 23:00N 46°50' W 091°53'612.8
2018-Jul-15 22:30N 46°53' W 091°45'612.8
2018-Jul-15 22:00N 46°55' W 091°36'612.6
2018-Jul-15 21:30N 46°57' W 091°27'318 9.4
2018-Jul-14 11:37N 45°57' W 083°54'411.9
2018-Jul-14 11:18N 45°55' W 083°58'613.2
2018-Jul-14 10:50N 45°52' W 084°05'412.9
2018-Jul-14 10:30N 45°51' W 084°11'713.4
2018-Jul-14 10:00N 45°51' W 084°21'713.2
2018-Jul-14 09:30N 45°51' W 084°31'612.3
2018-Jul-14 09:00N 45°50' W 084°39'713.1
2018-Jul-14 08:30N 45°49' W 084°49'713.3
2018-Jul-14 07:57N 45°50' W 084°59'613.0
2018-Jul-14 07:30N 45°50' W 085°07'510.3
2018-Jul-14 07:00N 45°45' W 085°10'613.2
2018-Jul-14 06:30N 45°40' W 085°15'713.3
2018-Jul-14 06:00N 45°34' W 085°21'713.2
2018-Jul-14 05:30N 45°29' W 085°27'713.1
2018-Jul-14 05:00N 45°24' W 085°32'713.2
2018-Jul-14 04:30N 45°18' W 085°38'713.4
2018-Jul-14 04:00N 45°13' W 085°44'713.3
2018-Jul-14 03:28N 45°07' W 085°50'713.3
2018-Jul-14 02:54N 45°01' W 085°56'31 0.6
2018-Jul-12 02:33N 44°42' W 086°30'113.3
2018-Jul-12 02:30N 44°42' W 086°30'712.8
2018-Jul-12 01:59N 44°49' W 086°27'612.4
2018-Jul-12 01:30N 44°54' W 086°25'612.4
2018-Jul-12 01:00N 45°00' W 086°23'1012.5
2018-Jul-12 00:15N 45°09' W 086°19'312.5
2018-Jul-12 00:00N 45°12' W 086°18'612.6
2018-Jul-11 23:30N 45°18' W 086°15'712.5
2018-Jul-11 22:58N 45°25' W 086°13'1812.0
2018-Jul-11 21:28N 45°42' W 086°04'812.3
2018-Jul-11 20:49N 45°46' W 085°54'412.3
2018-Jul-11 20:30N 45°48' W 085°49'712.2
2018-Jul-11 19:57N 45°51' W 085°41'511.8
2018-Jul-11 19:30N 45°53' W 085°34'611.8
2018-Jul-11 18:59N 45°53' W 085°25'612.2
2018-Jul-11 18:30N 45°53' W 085°17'612.2
2018-Jul-11 17:59N 45°52' W 085°08'612.2
2018-Jul-11 17:30N 45°51' W 084°60'612.1
2018-Jul-11 17:00N 45°50' W 084°51'611.4
2018-Jul-11 16:30N 45°49' W 084°43'510.3
2018-Jul-11 16:00N 45°51' W 084°36'612.0
2018-Jul-11 15:30N 45°52' W 084°28'612.1
2018-Jul-11 15:00N 45°53' W 084°19'611.9
2018-Jul-11 14:30N 45°53' W 084°11'1011.8
2018-Jul-11 13:41N 45°56' W 083°57'211.3
2018-Jul-11 13:29N 45°56' W 083°54'10 8.2
2018-Jul-11 12:14N 46°05' W 084°01'2 8.8
2018-Jul-11 12:00N 46°07' W 084°01'  
Track history (hours):
 
Tides and Currents Weather Stations Pressure Air Temp Water Temp Dewpoint Dewpoint Depression Visibility Wind Speed Wind Dir Waves Ship Positions

Edgar B Speer

Owner: Great Lakes Fleet, Inc, DULUTH, MN. More information available from US FCC via Universal Licensing System and Coast Guard Vessel Documentation Center.

Last reported at 2018-Jul-21 03:48 UTC. Time now 2018-Jul-21 22:48 UTC.
Position N 46°15' W 084°06'.

Length 306 m; draft 7.5 m.

Type: Cargo ship. MMSI: 366971330.

Date/timePositionNaut miles runAvg speedWind from/ knotsBaromVisibWave heightAir tempDewpointWater temp
2018-Jul-21 03:48N 46°15' W 084°06'2 8.0
2018-Jul-21 03:30N 46°13' W 084°07'7 9.2
2018-Jul-21 02:47N 46°08' W 084°01'3 9.6
2018-Jul-21 02:28N 46°05' W 084°01'612.1
2018-Jul-21 02:00N 46°02' W 083°54'611.5
2018-Jul-21 01:28N 45°56' W 083°54'612.9
2018-Jul-21 00:59N 45°53' W 084°02'613.1
2018-Jul-21 00:30N 45°51' W 084°11'613.0
2018-Jul-21 00:00N 45°51' W 084°20'612.6
2018-Jul-20 23:31N 45°51' W 084°29'611.9
2018-Jul-20 23:01N 45°50' W 084°38'611.8
2018-Jul-20 22:30N 45°49' W 084°46'611.7
2018-Jul-20 21:59N 45°49' W 084°55'612.1
2018-Jul-20 21:31N 45°50' W 085°03'5 9.4
2018-Jul-20 21:01N 45°47' W 085°09'510.7
2018-Jul-20 20:31N 45°43' W 085°12'612.8
2018-Jul-20 20:01N 45°38' W 085°18'713.1
2018-Jul-20 19:31N 45°32' W 085°23'713.1
2018-Jul-20 19:00N 45°27' W 085°29'613.0
2018-Jul-20 18:31N 45°22' W 085°34'612.9
2018-Jul-20 18:01N 45°17' W 085°40'613.0
2018-Jul-20 17:31N 45°11' W 085°45'  
2018-Jul-18 12:16N 45°47' W 085°53'1412.1
2018-Jul-18 11:05N 45°53' W 085°34'1111.9
2018-Jul-18 10:12N 45°53' W 085°19'212.2
2018-Jul-18 10:00N 45°53' W 085°16'612.2
2018-Jul-18 09:30N 45°52' W 085°07'712.4
2018-Jul-18 08:59N 45°51' W 084°58'612.3
2018-Jul-18 08:31N 45°50' W 084°50'611.8
2018-Jul-18 08:00N 45°49' W 084°41'1811.8
2018-Jul-18 06:27N 45°53' W 084°15'309 8.8
2018-Jul-16 19:23N 46°54' W 091°35'512.0
2018-Jul-16 19:00N 46°51' W 091°40'612.0
2018-Jul-16 18:30N 46°48' W 091°48'611.8
2018-Jul-16 18:00N 46°45' W 091°55'5 9.7
2018-Jul-16 17:30N 46°42' W 092°01'0 0.7
2018-Jul-16 17:01N 46°42' W 092°01'0 0.0
2018-Jul-16 16:31N 46°42' W 092°01'0 0.0
2018-Jul-16 16:01N 46°42' W 092°01'0 0.0
2018-Jul-16 15:30N 46°42' W 092°01'0 0.0
2018-Jul-16 15:00N 46°42' W 092°01'0 0.0
2018-Jul-16 14:31N 46°42' W 092°01'0 0.0
2018-Jul-16 14:00N 46°42' W 092°01'0 0.0
2018-Jul-16 13:30N 46°42' W 092°01'0 0.0
2018-Jul-16 13:00N 46°42' W 092°01'0 0.0
2018-Jul-16 12:30N 46°42' W 092°01'0 0.0
2018-Jul-16 11:59N 46°42' W 092°01'0 0.0
2018-Jul-16 11:30N 46°42' W 092°01'0 0.0
2018-Jul-16 10:59N 46°42' W 092°01'0 0.0
2018-Jul-16 10:30N 46°42' W 092°01'0 0.0
2018-Jul-16 10:01N 46°42' W 092°01'0 0.0
2018-Jul-16 09:31N 46°42' W 092°01'0 0.0
2018-Jul-16 08:59N 46°42' W 092°01'0 0.0
2018-Jul-16 08:30N 46°42' W 092°01'0 0.0
2018-Jul-16 07:59N 46°42' W 092°01'0 0.0
2018-Jul-16 07:30N 46°42' W 092°01'0 0.0
2018-Jul-16 07:00N 46°42' W 092°01'0 0.0
2018-Jul-16 06:30N 46°42' W 092°01'0 0.5
2018-Jul-16 06:01N 46°42' W 092°01'1 2.1
2018-Jul-16 05:31N 46°43' W 092°02'3 6.5
2018-Jul-16 05:00N 46°45' W 092°06'0 0.8
2018-Jul-16 04:30N 46°46' W 092°06'0 0.0
2018-Jul-16 04:01N 46°46' W 092°06'0 0.0
2018-Jul-16 03:31N 46°46' W 092°06'0 0.0
2018-Jul-16 03:01N 46°46' W 092°06'0 0.0
2018-Jul-16 02:31N 46°46' W 092°06'0 0.0
2018-Jul-16 02:01N 46°46' W 092°06'0 0.0
2018-Jul-16 01:31N 46°46' W 092°06'0 0.0
2018-Jul-16 01:01N 46°46' W 092°06'0 0.1
2018-Jul-16 00:30N 46°46' W 092°06'1 1.8
2018-Jul-16 00:00N 46°46' W 092°06'3 7.0
2018-Jul-15 23:30N 46°48' W 092°01'611.9
2018-Jul-15 23:00N 46°50' W 091°53'612.8
2018-Jul-15 22:30N 46°53' W 091°45'612.8
2018-Jul-15 22:00N 46°55' W 091°36'612.6
2018-Jul-15 21:30N 46°57' W 091°27'318 9.4
2018-Jul-14 11:37N 45°57' W 083°54'411.9
2018-Jul-14 11:18N 45°55' W 083°58'613.2
2018-Jul-14 10:50N 45°52' W 084°05'412.9
2018-Jul-14 10:30N 45°51' W 084°11'713.4
2018-Jul-14 10:00N 45°51' W 084°21'713.2
2018-Jul-14 09:30N 45°51' W 084°31'612.3
2018-Jul-14 09:00N 45°50' W 084°39'713.1
2018-Jul-14 08:30N 45°49' W 084°49'713.3
2018-Jul-14 07:57N 45°50' W 084°59'613.0
2018-Jul-14 07:30N 45°50' W 085°07'510.3
2018-Jul-14 07:00N 45°45' W 085°10'613.2
2018-Jul-14 06:30N 45°40' W 085°15'713.3
2018-Jul-14 06:00N 45°34' W 085°21'713.2
2018-Jul-14 05:30N 45°29' W 085°27'713.1
2018-Jul-14 05:00N 45°24' W 085°32'713.2
2018-Jul-14 04:30N 45°18' W 085°38'713.4
2018-Jul-14 04:00N 45°13' W 085°44'713.3
2018-Jul-14 03:28N 45°07' W 085°50'713.3
2018-Jul-14 02:54N 45°01' W 085°56'31 0.6
2018-Jul-12 02:33N 44°42' W 086°30'113.3
2018-Jul-12 02:30N 44°42' W 086°30'712.8
2018-Jul-12 01:59N 44°49' W 086°27'612.4
2018-Jul-12 01:30N 44°54' W 086°25'612.4
2018-Jul-12 01:00N 45°00' W 086°23'1012.5
2018-Jul-12 00:15N 45°09' W 086°19'312.5
2018-Jul-12 00:00N 45°12' W 086°18'612.6
2018-Jul-11 23:30N 45°18' W 086°15'712.5
2018-Jul-11 22:58N 45°25' W 086°13'1812.0
2018-Jul-11 21:28N 45°42' W 086°04'812.3
2018-Jul-11 20:49N 45°46' W 085°54'412.3
2018-Jul-11 20:30N 45°48' W 085°49'712.2
2018-Jul-11 19:57N 45°51' W 085°41'511.8
2018-Jul-11 19:30N 45°53' W 085°34'611.8
2018-Jul-11 18:59N 45°53' W 085°25'612.2
2018-Jul-11 18:30N 45°53' W 085°17'612.2
2018-Jul-11 17:59N 45°52' W 085°08'612.2
2018-Jul-11 17:30N 45°51' W 084°60'612.1
2018-Jul-11 17:00N 45°50' W 084°51'611.4
2018-Jul-11 16:30N 45°49' W 084°43'510.3
2018-Jul-11 16:00N 45°51' W 084°36'612.0
2018-Jul-11 15:30N 45°52' W 084°28'612.1
2018-Jul-11 15:00N 45°53' W 084°19'611.9
2018-Jul-11 14:30N 45°53' W 084°11'1011.8
2018-Jul-11 13:41N 45°56' W 083°57'211.3
2018-Jul-11 13:29N 45°56' W 083°54'10 8.2
2018-Jul-11 12:14N 46°05' W 084°01'2 8.8
2018-Jul-11 12:00N 46°07' W 084°01'  

Dump ship's entire track history